Time;durP1;ratioP1;P1;durP2;ratioP2;P2;SDS_P1;SDS_P2;PMS_P1;PMS_P2;Temp;Humidity;BMP_temperature;BMP_pressure;BME280_temperature;BME280_humidity;BME280_pressure;Samples;Min_cycle;Max_cycle;Signal;HPM_P1;HPM_P2
2022/12/17 13:06:25;;;;;;;;;;;;;;;;;;4993415;28;19975;-90
2022/12/17 13:08:51;;;;;;;;;;;;;;;;;;4992985;28;19925;-89
2022/12/17 13:11:17;;;;;;;;;;;;;;;;;;4992986;28;19968;-89
2022/12/17 13:13:54;;;;;;;;;;;;;;;;;;4976722;28;19988;-89
2022/12/17 13:16:20;;;;;;;;;;;;;;;;;;4976891;28;19922;-90
2022/12/17 13:18:46;;;;;;;;;;;;;;;;;;4977153;28;20313;-90
2022/12/17 13:21:12;;;;;;;;;;;;;;;;;;4976296;28;20281;-90
2022/12/17 13:23:38;;;;;;;;;;;;;;;;;;4976086;28;20064;-89
2022/12/17 13:26:04;;;;;;;;;;;;;;;;;;4976317;28;19922;-89
2022/12/17 13:28:30;;;;;;;;;;;;;;;;;;4992827;28;19922;-89
2022/12/17 13:30:56;;;;;;;;;;;;;;;;;;4976899;28;20384;-89
2022/12/17 13:33:22;;;;;;;;;;;;;;;;;;4977263;28;19921;-90
2022/12/17 13:35:49;;;;;;;;;;;;;;;;;;4995795;28;19926;-95
2022/12/17 13:38:33;;;;;;;;;;;;;;;;;;4994385;28;19922;-93
2022/12/17 13:40:59;;;;;;;;;;;;;;;;;;4976717;28;19921;-88
2022/12/17 13:43:25;;;;;;;;;;;;;;;;;;4976189;28;20388;-89
2022/12/17 13:45:51;;;;;;;;;;;;;;;;;;4976364;28;19921;-88
2022/12/17 13:48:17;;;;;;;;;;;;;;;;;;4992666;28;19929;-87
2022/12/17 13:50:43;;;;;;;;;;;;;;;;;;4978066;28;20296;-89
2022/12/17 13:53:09;;;;;;;;;;;;;;;;;;4995661;28;20284;-88
2022/12/17 13:55:35;;;;;;;;;;;;;;;;;;4995940;28;19925;-88
2022/12/17 13:58:01;;;;;;;;;;;;;;;;;;4979371;28;20472;-89
2022/12/17 14:00:27;;;;;;;;;;;;;;;;;;4995335;28;19944;-88
2022/12/17 14:02:53;;;;;;;;;;;;;;;;;;4979287;28;19926;-87
2022/12/17 14:05:19;;;;;;;;;;;;;;;;;;4995795;28;20012;-88
2022/12/17 14:07:45;;;;;;;;;;;;;;;;;;4979130;28;19932;-88
2022/12/17 14:10:11;;;;;;;;;;;;;;;;;;4979448;28;20004;-89
2022/12/17 14:12:37;;;;;;;;;;;;;;;;;;4995199;28;19921;-89
2022/12/17 14:15:03;;;;;;;;;;;;;;;;;;4978913;28;19928;-89
2022/12/17 14:17:28;;;;;;;;;;;;;;;;;;4995359;28;19922;-91
2022/12/17 14:19:54;;;;;;;;;;;;;;;;;;4979413;28;20337;-90
2022/12/17 14:22:20;;;;;;;;;;;;;;;;;;4979490;28;20012;-92
2022/12/17 14:24:46;;;;;;;;;;;;;;;;;;4979294;28;19922;-90
2022/12/17 14:27:12;;;;;;;;;;;;;;;;;;4995173;28;19922;-90
2022/12/17 14:29:39;;;;;;;;;;;;;;;;;;4995124;28;20382;-90
2022/12/17 14:32:04;;;;;;;;;;;;;;;;;;4979266;28;19986;-89
2022/12/17 14:34:30;;;;;;;;;;;;;;;;;;4995196;28;19921;-90
2022/12/17 14:36:56;;;;;;;;;;;;;;;;;;4995245;28;19922;-90
2022/12/17 14:39:22;;;;;;;;;;;;;;;;;;4979001;28;19921;-89
2022/12/17 14:44:33;;;;;;;;;;;;;;;;;;4995240;28;19921;-89
2022/12/17 14:46:59;;;;;;;;;;;;;;;;;;4999497;28;19944;-90
2022/12/17 14:49:25;;;;;;;;;;;;;;;;;;4983241;28;20365;-89
2022/12/17 14:51:51;;;;;;;;;;;;;;;;;;4982792;28;20414;-88
2022/12/17 14:54:17;;;;;;;;;;;;;;;;;;4999261;28;19980;-91
2022/12/17 14:56:43;;;;;;;;;;;;;;;;;;4982960;28;20361;-91
2022/12/17 14:59:09;;;;;;;;;;;;;;;;;;4982710;28;20391;-90
2022/12/17 15:01:36;;;;;;;;;;;;;;;;;;4982492;28;19925;-94
2022/12/17 15:04:02;;;;;;;;;;;;;;;;;;4983045;28;19922;-94
2022/12/17 15:06:28;;;;;;;;;;;;;;;;;;4982466;28;19928;-91
2022/12/17 15:08:54;;;;;;;;;;;;;;;;;;4982721;28;19929;-92
2022/12/17 15:11:20;;;;;;;;;;;;;;;;;;4982621;28;19922;-93
2022/12/17 15:13:46;;;;;;;;;;;;;;;;;;4982559;28;19932;-91
2022/12/17 15:16:12;;;;;;;;;;;;;;;;;;4982366;28;19921;-91
2022/12/17 15:18:38;;;;;;;;;;;;;;;;;;4998908;28;20325;-94
2022/12/17 15:21:04;;;;;;;;;;;;;;;;;;4982242;28;19967;-91
2022/12/17 15:23:30;;;;;;;;;;;;;;;;;;4983352;28;19971;-91
2022/12/17 15:25:56;;;;;;;;;;;;;;;;;;4982205;28;19940;-91
2022/12/17 15:28:22;;;;;;;;;;;;;;;;;;4982315;28;19921;-89
2022/12/17 15:30:48;;;;;;;;;;;;;;;;;;4998521;28;20426;-92
2022/12/17 15:33:14;;;;;;;;;;;;;;;;;;4983644;28;19922;-91
2022/12/17 15:35:39;;;;;;;;;;;;;;;;;;4983032;28;19921;-91
2022/12/17 15:38:05;;;;;;;;;;;;;;;;;;4985659;28;19932;-89
2022/12/17 15:40:31;;;;;;;;;;;;;;;;;;5005932;28;19921;-91
2022/12/17 15:43:10;;;;;;;;;;;;;;;;;;4994661;28;19992;-91
2022/12/17 15:45:36;;;;;;;;;;;;;;;;;;5211940;23;19930;-92
2022/12/17 15:48:02;;;;;;;;;;;;;;;;;;4994967;28;19979;-93
2022/12/17 15:50:28;;;;;;;;;;;;;;;;;;5008352;28;19957;-92
2022/12/17 15:52:54;;;;;;;;;;;;;;;;;;4959853;28;19926;-92
2022/12/17 15:55:20;;;;;;;;;;;;;;;;;;4959388;28;19929;-89
2022/12/17 15:57:46;;;;;;;;;;;;;;;;;;4957624;28;19922;-90
2022/12/17 16:00:11;;;;;;;;;;;;;;;;;;4958895;28;19926;-91
2022/12/17 16:02:37;;;;;;;;;;;;;;;;;;4975377;28;19926;-90
2022/12/17 16:05:03;;;;;;;;;;;;;;;;;;4962792;28;19926;-90
2022/12/17 16:07:45;;;;;;;;;;;;;;;;;;4977796;28;20373;-96
2022/12/17 16:10:11;;;;;;;;;;;;;;;;;;4961236;28;19930;-93
2022/12/17 16:12:37;;;;;;;;;;;;;;;;;;4959212;28;19929;-93
2022/12/17 16:15:03;;;;;;;;;;;;;;;;;;4959222;28;19926;-94
2022/12/17 16:17:29;;;;;;;;;;;;;;;;;;4959139;28;19973;-90
2022/12/17 16:19:55;;;;;;;;;;;;;;;;;;4958295;28;19922;-90
2022/12/17 16:22:21;;;;;;;;;;;;;;;;;;4958373;28;19935;-89
2022/12/17 16:24:46;;;;;;;;;;;;;;;;;;4958169;28;19932;-88
2022/12/17 16:27:12;;;;;;;;;;;;;;;;;;4958136;28;19922;-89
2022/12/17 16:29:38;;;;;;;;;;;;;;;;;;4974149;28;19922;-89
2022/12/17 16:32:04;;;;;;;;;;;;;;;;;;4958402;28;19922;-91
2022/12/17 16:34:31;;;;;;;;;;;;;;;;;;4958054;28;19928;-91
2022/12/17 16:37:00;;;;;;;;;;;;;;;;;;4958280;28;19929;-91
2022/12/17 16:39:26;;;;;;;;;;;;;;;;;;4976208;28;19969;-92
2022/12/17 16:41:52;;;;;;;;;;;;;;;;;;4976975;28;20036;-90
2022/12/17 16:44:18;;;;;;;;;;;;;;;;;;4970024;28;20085;-92
2022/12/17 16:46:45;;;;;;;;;;;;;;;;;;4987221;28;20107;-91
2022/12/17 16:49:11;;;;;;;;;;;;;;;;;;4996571;28;19933;-91
2022/12/17 16:51:37;;;;;;;;;;;;;;;;;;4997091;28;19921;-91
2022/12/17 16:54:03;;;;;;;;;;;;;;;;;;4996806;28;20120;-93
2022/12/17 17:04:33;;;;;;;;;;;;;;;;;;5806481;22;19931;-93
2022/12/17 17:07:16;;;;;;;;;;;;;;;;;;4999184;28;19925;-92
2022/12/17 17:09:48;;;;;;;;;;;;;;;;;;4996792;28;20419;-96
2022/12/17 17:12:15;;;;;;;;;;;;;;;;;;5013965;28;20449;-94
2022/12/17 17:14:43;;;;;;;;;;;;;;;;;;4980130;28;19925;-90
2022/12/17 17:17:09;;;;;;;;;;;;;;;;;;4979659;28;19929;-91
2022/12/17 17:19:35;;;;;;;;;;;;;;;;;;4979964;28;19925;-92
2022/12/17 17:22:01;;;;;;;;;;;;;;;;;;4979768;28;19931;-93
2022/12/17 17:24:27;;;;;;;;;;;;;;;;;;4979524;28;19925;-92
2022/12/17 17:26:53;;;;;;;;;;;;;;;;;;4979828;28;19997;-96
2022/12/17 17:29:19;;;;;;;;;;;;;;;;;;4979968;28;19921;-92
2022/12/17 17:31:48;;;;;;;;;;;;;;;;;;4979943;28;19925;-92
2022/12/17 17:34:14;;;;;;;;;;;;;;;;;;4979893;28;19980;-91
2022/12/17 17:36:39;;;;;;;;;;;;;;;;;;4979957;28;19921;-92
2022/12/17 17:39:05;;;;;;;;;;;;;;;;;;4979213;28;19992;-91
2022/12/17 17:41:31;;;;;;;;;;;;;;;;;;4995458;28;19928;-91
2022/12/17 17:43:57;;;;;;;;;;;;;;;;;;4995435;28;19933;-91
2022/12/17 17:46:25;;;;;;;;;;;;;;;;;;4978824;28;20384;-91
2022/12/17 17:48:51;;;;;;;;;;;;;;;;;;4996856;28;19922;-91
2022/12/17 17:51:17;;;;;;;;;;;;;;;;;;4995967;28;19922;-91
2022/12/17 17:53:43;;;;;;;;;;;;;;;;;;4979563;28;19925;-91
2022/12/17 17:56:14;;;;;;;;;;;;;;;;;;4979700;28;19985;-93
2022/12/17 17:58:41;;;;;;;;;;;;;;;;;;4979731;28;19921;-92
2022/12/17 18:01:07;;;;;;;;;;;;;;;;;;4995560;28;19921;-90
2022/12/17 18:03:32;;;;;;;;;;;;;;;;;;4979806;28;20083;-93
2022/12/17 18:05:58;;;;;;;;;;;;;;;;;;4979735;28;20419;-90
2022/12/17 18:08:24;;;;;;;;;;;;;;;;;;4995806;28;20016;-92
2022/12/17 18:10:50;;;;;;;;;;;;;;;;;;4979757;28;19926;-91
2022/12/17 18:16:01;;;;;;;;;;;;;;;;;;4996115;28;19921;-90
2022/12/17 18:18:27;;;;;;;;;;;;;;;;;;4995967;28;19921;-89
2022/12/17 18:20:53;;;;;;;;;;;;;;;;;;4978991;28;19921;-88
2022/12/17 18:23:19;;;;;;;;;;;;;;;;;;4979568;28;19976;-90
2022/12/17 18:25:45;;;;;;;;;;;;;;;;;;4995049;28;19952;-92
2022/12/17 18:28:11;;;;;;;;;;;;;;;;;;4978837;28;19921;-92
2022/12/17 18:30:37;;;;;;;;;;;;;;;;;;4980619;28;19943;-91
2022/12/17 18:33:03;;;;;;;;;;;;;;;;;;4980037;28;20430;-90
2022/12/17 18:35:29;;;;;;;;;;;;;;;;;;4979896;28;20016;-91
2022/12/17 18:37:55;;;;;;;;;;;;;;;;;;4979488;28;20364;-90
2022/12/17 18:40:21;;;;;;;;;;;;;;;;;;4980188;28;19928;-90
2022/12/17 18:45:37;;;;;;;;;;;;;;;;;;4995290;28;19928;-91
2022/12/17 18:48:03;;;;;;;;;;;;;;;;;;4979460;28;20064;-90
2022/12/17 18:50:28;;;;;;;;;;;;;;;;;;4979555;28;19988;-89
2022/12/17 18:52:54;;;;;;;;;;;;;;;;;;4979998;28;19943;-88
2022/12/17 18:55:20;;;;;;;;;;;;;;;;;;4979460;28;19921;-89
2022/12/17 18:58:05;;;;;;;;;;;;;;;;;;4981263;28;19913;-96
2022/12/17 19:00:49;;;;;;;;;;;;;;;;;;4995944;28;20340;-89
2022/12/17 19:03:15;;;;;;;;;;;;;;;;;;4994984;28;20403;-90
2022/12/17 19:05:41;;;;;;;;;;;;;;;;;;4979927;28;19942;-89
2022/12/17 19:08:07;;;;;;;;;;;;;;;;;;4996095;28;19961;-88
2022/12/17 19:10:33;;;;;;;;;;;;;;;;;;4978769;28;19928;-89
2022/12/17 19:12:59;;;;;;;;;;;;;;;;;;4978833;28;20008;-88
2022/12/17 19:15:25;;;;;;;;;;;;;;;;;;4978426;28;19932;-88
2022/12/17 19:17:51;;;;;;;;;;;;;;;;;;4978433;28;19921;-88
2022/12/17 19:20:17;;;;;;;;;;;;;;;;;;4978303;28;19925;-89
2022/12/17 19:22:43;;;;;;;;;;;;;;;;;;4994679;28;19929;-90
2022/12/17 19:25:09;;;;;;;;;;;;;;;;;;4980115;28;19921;-88
2022/12/17 19:27:35;;;;;;;;;;;;;;;;;;4979679;28;20060;-89
2022/12/17 19:30:01;;;;;;;;;;;;;;;;;;4978645;28;19921;-89
2022/12/17 19:32:28;;;;;;;;;;;;;;;;;;4997324;28;19922;-89
2022/12/17 19:34:53;;;;;;;;;;;;;;;;;;4981773;28;19922;-88
2022/12/17 19:37:19;;;;;;;;;;;;;;;;;;4998014;28;19928;-88
2022/12/17 19:39:45;;;;;;;;;;;;;;;;;;4997850;28;19933;-88
2022/12/17 19:42:23;;;;;;;;;;;;;;;;;;4981443;28;20281;-89
2022/12/17 19:44:49;;;;;;;;;;;;;;;;;;4981730;28;19975;-89
2022/12/17 19:47:15;;;;;;;;;;;;;;;;;;4998082;28;19925;-89
2022/12/17 19:49:41;;;;;;;;;;;;;;;;;;4981329;28;19992;-89
2022/12/17 19:52:07;;;;;;;;;;;;;;;;;;4981706;28;19929;-89
2022/12/17 19:54:33;;;;;;;;;;;;;;;;;;4981639;28;20360;-88
2022/12/17 19:56:59;;;;;;;;;;;;;;;;;;4981799;28;20281;-87
2022/12/17 19:59:25;;;;;;;;;;;;;;;;;;4981912;28;20497;-89
2022/12/17 20:01:51;;;;;;;;;;;;;;;;;;4981266;28;19929;-88
2022/12/17 20:04:17;;;;;;;;;;;;;;;;;;4981295;28;20273;-88
2022/12/17 20:06:43;;;;;;;;;;;;;;;;;;4981252;28;19922;-87
2022/12/17 20:09:08;;;;;;;;;;;;;;;;;;4997451;28;19972;-87
2022/12/17 20:11:35;;;;;;;;;;;;;;;;;;4997514;28;19921;-90
2022/12/17 20:14:00;;;;;;;;;;;;;;;;;;4997501;28;19928;-91
2022/12/17 20:16:26;;;;;;;;;;;;;;;;;;4981318;28;20010;-92
2022/12/17 20:18:55;;;;;;;;;;;;;;;;;;4982179;28;19921;-94
2022/12/17 20:21:24;;;;;;;;;;;;;;;;;;4981769;28;20420;-95
2022/12/17 20:24:10;;;;;;;;;;;;;;;;;;4996687;28;20385;-91
2022/12/17 20:26:36;;;;;;;;;;;;;;;;;;4980846;28;19928;-91
2022/12/17 20:29:02;;;;;;;;;;;;;;;;;;4980554;28;19921;-91
2022/12/17 20:31:31;;;;;;;;;;;;;;;;;;4980455;28;20093;-93
2022/12/17 20:34:00;;;;;;;;;;;;;;;;;;4980753;28;20017;-94
2022/12/17 20:36:26;;;;;;;;;;;;;;;;;;4980876;28;20281;-92
2022/12/17 20:38:52;;;;;;;;;;;;;;;;;;4980915;28;19922;-91
2022/12/17 20:41:18;;;;;;;;;;;;;;;;;;4996593;28;19929;-92
2022/12/17 20:43:44;;;;;;;;;;;;;;;;;;4976130;28;19933;-94
2022/12/17 20:46:46;;;;;;;;;;;;;;;;;;4974900;28;19962;-95
2022/12/17 20:49:13;;;;;;;;;;;;;;;;;;4978116;28;19921;-95
2022/12/17 20:51:39;;;;;;;;;;;;;;;;;;4977726;28;20024;-95
2022/12/17 20:54:07;;;;;;;;;;;;;;;;;;4977781;28;20433;-95
2022/12/17 20:56:33;;;;;;;;;;;;;;;;;;4977775;28;19921;-92
2022/12/17 20:58:59;;;;;;;;;;;;;;;;;;4977435;28;19929;-95
2022/12/17 21:01:25;;;;;;;;;;;;;;;;;;4977537;28;19975;-94
2022/12/17 21:03:50;;;;;;;;;;;;;;;;;;4976952;28;19961;-94
2022/12/17 21:06:18;;;;;;;;;;;;;;;;;;4973231;28;19930;-94
2022/12/17 21:08:49;;;;;;;;;;;;;;;;;;4973759;28;20020;-94
2022/12/17 21:14:34;;;;;;;;;;;;;;;;;;5096616;23;19976;-92
2022/12/17 21:17:38;;;;;;;;;;;;;;;;;;4994949;28;19936;-93
2022/12/17 21:20:11;;;;;;;;;;;;;;;;;;4993881;28;20027;-93
2022/12/17 21:22:37;;;;;;;;;;;;;;;;;;4977139;28;19984;-91
2022/12/17 21:25:03;;;;;;;;;;;;;;;;;;4977029;28;19921;-93
2022/12/17 21:27:29;;;;;;;;;;;;;;;;;;4961485;28;20352;-92
2022/12/17 21:29:56;;;;;;;;;;;;;;;;;;4961270;28;19922;-93
2022/12/17 21:32:21;;;;;;;;;;;;;;;;;;4960755;28;19932;-92
2022/12/17 21:34:48;;;;;;;;;;;;;;;;;;4961222;28;19957;-91
2022/12/17 21:37:16;;;;;;;;;;;;;;;;;;4961074;28;19971;-92
2022/12/17 21:39:42;;;;;;;;;;;;;;;;;;4960914;28;19990;-92
2022/12/17 21:44:56;;;;;;;;;;;;;;;;;;4976037;28;20020;-91
2022/12/17 21:47:23;;;;;;;;;;;;;;;;;;4974271;28;19922;-92
2022/12/17 21:49:50;;;;;;;;;;;;;;;;;;4961144;28;19928;-94
2022/12/17 21:52:28;;;;;;;;;;;;;;;;;;4996157;28;19922;-96
2022/12/17 21:54:54;;;;;;;;;;;;;;;;;;4964233;28;20376;-92
2022/12/17 21:57:20;;;;;;;;;;;;;;;;;;4959510;28;20435;-91
2022/12/17 21:59:46;;;;;;;;;;;;;;;;;;4960153;28;19926;-89
2022/12/17 22:02:15;;;;;;;;;;;;;;;;;;4960297;28;19933;-92
2022/12/17 22:04:44;;;;;;;;;;;;;;;;;;4977161;28;19926;-91
2022/12/17 22:07:10;;;;;;;;;;;;;;;;;;4976242;28;19928;-93
2022/12/17 22:09:35;;;;;;;;;;;;;;;;;;4977003;28;19922;-92
2022/12/17 22:14:48;;;;;;;;;;;;;;;;;;4992165;28;19926;-91
2022/12/17 22:17:15;;;;;;;;;;;;;;;;;;4975912;28;19929;-91
2022/12/17 22:19:40;;;;;;;;;;;;;;;;;;4959695;28;20024;-93
2022/12/17 22:22:09;;;;;;;;;;;;;;;;;;4959705;28;19926;-92
2022/12/17 22:24:36;;;;;;;;;;;;;;;;;;4975978;28;19922;-91
2022/12/17 22:27:02;;;;;;;;;;;;;;;;;;4959678;28;19929;-92
2022/12/17 22:34:57;;;;;;;;;;;;;;;;;;4975441;28;19934;-90
2022/12/17 22:37:23;;;;;;;;;;;;;;;;;;4959442;28;19922;-92
2022/12/17 22:39:49;;;;;;;;;;;;;;;;;;4959770;28;19922;-91
2022/12/17 22:45:03;;;;;;;;;;;;;;;;;;4975350;28;19922;-91
2022/12/17 22:47:31;;;;;;;;;;;;;;;;;;4959108;28;19922;-92
2022/12/17 22:49:57;;;;;;;;;;;;;;;;;;4959532;28;20389;-92
2022/12/17 22:52:23;;;;;;;;;;;;;;;;;;4959352;28;19922;-92
2022/12/17 22:54:49;;;;;;;;;;;;;;;;;;4959377;28;20384;-91
2022/12/17 22:57:15;;;;;;;;;;;;;;;;;;4959408;28;19921;-92
2022/12/17 22:59:41;;;;;;;;;;;;;;;;;;4959270;28;19922;-92
2022/12/17 23:02:09;;;;;;;;;;;;;;;;;;4958602;28;20339;-92
2022/12/17 23:04:35;;;;;;;;;;;;;;;;;;4959485;28;19921;-92
2022/12/17 23:07:01;;;;;;;;;;;;;;;;;;4962519;28;20412;-92
2022/12/17 23:09:27;;;;;;;;;;;;;;;;;;4963599;28;20333;-91
2022/12/17 23:11:53;;;;;;;;;;;;;;;;;;4963207;28;19969;-91
2022/12/17 23:14:20;;;;;;;;;;;;;;;;;;4963031;28;19929;-92
2022/12/17 23:16:46;;;;;;;;;;;;;;;;;;4963211;28;19921;-93
2022/12/17 23:19:14;;;;;;;;;;;;;;;;;;4978599;28;19921;-92
2022/12/17 23:21:40;;;;;;;;;;;;;;;;;;4963388;28;20284;-92
2022/12/17 23:24:06;;;;;;;;;;;;;;;;;;4962900;28;19984;-91
2022/12/17 23:26:34;;;;;;;;;;;;;;;;;;4979734;28;19921;-93
2022/12/17 23:29:00;;;;;;;;;;;;;;;;;;4962975;28;20004;-92
2022/12/17 23:31:29;;;;;;;;;;;;;;;;;;4979443;28;20017;-92
2022/12/17 23:33:55;;;;;;;;;;;;;;;;;;4995077;28;19969;-92
2022/12/17 23:36:22;;;;;;;;;;;;;;;;;;4995841;28;19922;-91
2022/12/17 23:38:48;;;;;;;;;;;;;;;;;;4979005;28;19928;-92
2022/12/17 23:41:17;;;;;;;;;;;;;;;;;;4995140;28;19933;-93
2022/12/17 23:43:43;;;;;;;;;;;;;;;;;;4978888;28;19925;-91
2022/12/17 23:46:09;;;;;;;;;;;;;;;;;;4978667;28;19929;-92
2022/12/17 23:48:35;;;;;;;;;;;;;;;;;;4962964;28;19922;-92
2022/12/17 23:51:00;;;;;;;;;;;;;;;;;;4962881;28;20393;-92
2022/12/17 23:53:26;;;;;;;;;;;;;;;;;;4962958;28;20389;-92
2022/12/17 23:55:52;;;;;;;;;;;;;;;;;;4962919;28;20008;-92
2022/12/17 23:58:18;;;;;;;;;;;;;;;;;;4978965;28;19929;-91
